Sebastopol, MS (39359)

2:03 PM CDT on September 02, 2015 (GMT -0500)
Key | | Change Station
CLOSE
Current Station
Airport
Location: Meridian,
Elevation: 308 ft
Nearby Weather Stations

Elev 308 ft 32.33 °N, 88.75 °W | Updated 5 minutes ago

Partly Cloudy
Partly Cloudy
90 °F
Feels Like 94 °F
N
0
Wind Variable Wind from North

Today
High -- | Low -- °F
--% Chance of Precip.
Yesterday
High -- | Low -- °F
Precip. -- in
6:32 AM 7:20 PM
Waning Gibbous, 78% visible
Pressure 30.03 in
Visibility 10.0 miles
Clouds Few 6000 ft
Scattered Clouds 7500 ft
Mostly Cloudy 9500 ft
Heat Index 94 °F
Dew Point 69 °F
Humidity 50%
Rainfall 0.00 in
Snow Depth Not available.
UV 5 out of 12
Pollen 8.90 out of 12
Air Quality Not available.
Flu Activity Not available.
METAR KMEI 021858Z 00000KT 10SM FEW060 SCT075 BKN095 32/21 A3004 RMK AO2 LTG DSNT SW SLP167 T03220206
Pressure 30.03 in
Visibility 10.0 miles
Clouds Few 6000 ft
Scattered Clouds 7500 ft
Mostly Cloudy 9500 ft
Heat Index 94 °F
Dew Point 69 °F
Humidity 50%
Rainfall 0.00 in
Snow Depth Not available.
UV 5 out of 12
Pollen 8.90 out of 12
Air Quality Not available.
Flu Activity Not available.
METAR KMEI 021858Z 00000KT 10SM FEW060 SCT075 BKN095 32/21 A3004 RMK AO2 LTG DSNT SW SLP167 T03220206

10-Day Weather Forecast

×

Almanac

Astronomy

Sep. 02, 2015 Rise Set
Actual Time
Civil Twilight
Nautical Twilight
Astronomical Twilight
Moon
Length of Visible Light
Length of Day
Tomorrow will be .
, % of the Moon is Illuminated

Today's Extremes

State Highs State Lows

Community

WunderPhotos

Upload Photos

1,851,799 photos uploaded!

WunderBlogs® & News

Nearby

Air Quality

  Air Quality AQ Index Pollutant
Not available.

Snow Depth

Station Depth Elevation

Earthquake Activity

City Distance Mag. Time & Date
Minimum magnitude displayed is 2.5.

Coastal Water Temperatures

Place Temperature

Stations

Nearby Weather Stations

Station Location Temp. Windchill Dew Point Humidity Wind Precip. Elev Updated Type